createdAt,value
2022-09-14T00:01:37.312Z,100.00
2022-09-14T00:04:08.693Z,100.00
2022-09-14T00:06:35.854Z,100.00
2022-09-14T00:09:06.943Z,100.00
2022-09-14T00:11:36.438Z,100.00
2022-09-14T00:14:06.671Z,100.00
2022-09-14T00:16:40.087Z,100.00
2022-09-14T00:19:17.577Z,100.00
2022-09-14T00:21:44.592Z,100.00
2022-09-14T00:24:12.598Z,100.00
2022-09-14T00:26:39.597Z,100.00
2022-09-14T00:29:07.582Z,100.00
2022-09-14T00:31:38.395Z,100.00
2022-09-14T00:34:09.620Z,100.00
2022-09-14T00:36:47.318Z,100.00
2022-09-14T00:39:17.353Z,100.00
2022-09-14T00:41:47.420Z,100.00
2022-09-14T00:44:17.129Z,100.00
2022-09-14T00:46:49.636Z,100.00
2022-09-14T00:49:27.559Z,100.00
2022-09-14T00:52:09.012Z,100.00
2022-09-14T00:54:45.509Z,100.00
2022-09-14T00:57:13.121Z,100.00
2022-09-14T00:59:42.966Z,100.00
2022-09-14T01:02:14.984Z,100.00
2022-09-14T01:04:44.035Z,100.00
2022-09-14T01:08:05.575Z,100.00
2022-09-14T01:10:50.618Z,100.00
2022-09-14T01:13:52.993Z,100.00
2022-09-14T01:16:50.561Z,100.00
2022-09-14T01:19:39.920Z,100.00
2022-09-14T01:22:18.681Z,100.00
2022-09-14T01:24:55.988Z,100.00
2022-09-14T01:27:44.111Z,100.00
2022-09-14T01:30:22.759Z,100.00
2022-09-14T01:33:04.688Z,100.00
2022-09-14T01:35:38.829Z,100.00
2022-09-14T01:38:24.385Z,100.00
2022-09-14T01:40:52.453Z,100.00
2022-09-14T01:43:48.404Z,100.00
2022-09-14T01:46:25.993Z,100.00
2022-09-14T01:49:04.923Z,100.00
2022-09-14T01:51:45.843Z,100.00
2022-09-14T01:54:25.951Z,100.00
2022-09-14T01:57:02.396Z,100.00
2022-09-14T01:59:44.691Z,100.00
2022-09-14T02:02:24.922Z,100.00
2022-09-14T02:05:09.242Z,100.00
2022-09-14T02:07:38.545Z,100.00
2022-09-14T02:10:13.183Z,100.00
2022-09-14T02:12:41.403Z,100.00
2022-09-14T02:15:12.678Z,100.00
2022-09-14T02:17:40.238Z,100.00
2022-09-14T02:20:15.762Z,100.00
2022-09-14T02:22:43.052Z,100.00
2022-09-14T02:25:10.471Z,100.00
2022-09-14T02:27:37.246Z,100.00
2022-09-14T02:30:05.103Z,100.00
2022-09-14T02:33:23.715Z,100.00
2022-09-14T02:35:55.814Z,100.00
2022-09-14T02:38:58.215Z,100.00
2022-09-14T02:41:44.977Z,100.00
2022-09-14T02:44:51.159Z,100.00
2022-09-14T02:47:27.111Z,100.00
2022-09-14T02:50:24.351Z,100.00
2022-09-14T02:53:20.051Z,100.00
2022-09-14T02:55:56.215Z,100.00
2022-09-14T02:58:23.201Z,100.00
2022-09-14T03:00:51.162Z,100.00
2022-09-14T03:03:21.745Z,100.00
2022-09-14T03:05:48.678Z,100.00
2022-09-14T03:08:16.084Z,100.00
2022-09-14T03:10:44.354Z,100.00
2022-09-14T03:13:12.331Z,100.00
2022-09-14T03:15:39.835Z,100.00
2022-09-14T03:18:13.588Z,100.00
2022-09-14T03:20:41.827Z,100.00
2022-09-14T03:23:10.798Z,100.00
2022-09-14T03:25:43.968Z,100.00
2022-09-14T03:28:12.605Z,100.00
2022-09-14T03:30:39.675Z,100.00
2022-09-14T03:33:06.742Z,100.00
2022-09-14T03:35:34.299Z,100.00
2022-09-14T03:38:03.302Z,100.00
2022-09-14T03:40:31.013Z,100.00
2022-09-14T03:42:58.516Z,100.00
2022-09-14T03:45:25.759Z,100.00
2022-09-14T03:47:52.395Z,100.00
2022-09-14T03:50:20.153Z,100.00
2022-09-14T03:52:47.662Z,100.00
2022-09-14T03:55:14.952Z,100.00
2022-09-14T03:57:41.666Z,100.00
2022-09-14T04:00:09.947Z,100.00
2022-09-14T04:02:36.946Z,100.00
2022-09-14T04:05:03.952Z,100.00
2022-09-14T04:07:30.698Z,100.00
2022-09-14T04:09:57.353Z,100.00
2022-09-14T04:12:24.897Z,100.00
2022-09-14T04:14:51.647Z,100.00
2022-09-14T04:17:18.552Z,100.00
2022-09-14T04:19:45.268Z,100.00
2022-09-14T04:22:12.041Z,100.00
2022-09-14T04:24:38.734Z,100.00
2022-09-14T04:27:06.091Z,100.00
2022-09-14T04:29:33.027Z,100.00
2022-09-14T04:31:59.815Z,100.00
2022-09-14T04:34:26.675Z,100.00
2022-09-14T04:36:53.338Z,100.00
2022-09-14T04:39:20.259Z,100.00
2022-09-14T04:41:47.243Z,100.00
2022-09-14T04:44:14.596Z,100.00
2022-09-14T04:46:46.700Z,100.00
2022-09-14T04:49:18.927Z,100.00
2022-09-14T04:51:46.056Z,100.00
2022-09-14T04:54:17.024Z,100.00
2022-09-14T04:56:44.902Z,100.00
2022-09-14T04:59:13.110Z,100.00
2022-09-14T05:01:44.850Z,100.00
2022-09-14T05:04:12.427Z,100.00
2022-09-14T05:06:42.995Z,100.00
2022-09-14T05:09:17.036Z,100.00
2022-09-14T05:11:45.121Z,100.00
2022-09-14T05:14:13.965Z,100.00
2022-09-14T05:16:43.018Z,100.00
2022-09-14T05:19:15.462Z,100.00
2022-09-14T05:21:42.826Z,100.00
2022-09-14T05:24:19.120Z,100.00
2022-09-14T05:26:46.722Z,100.00
2022-09-14T05:29:16.721Z,100.00
2022-09-14T05:31:44.503Z,100.00
2022-09-14T05:34:12.473Z,100.00
2022-09-14T05:36:40.683Z,100.00
2022-09-14T05:39:08.919Z,100.00
2022-09-14T05:41:36.218Z,100.00
2022-09-14T05:44:03.349Z,100.00
2022-09-14T05:46:30.012Z,100.00
2022-09-14T05:48:56.996Z,100.00
2022-09-14T05:51:26.352Z,100.00
2022-09-14T05:53:59.294Z,100.00
2022-09-14T05:56:29.556Z,100.00
2022-09-14T05:58:56.243Z,100.00
2022-09-14T06:01:27.996Z,100.00
2022-09-14T06:03:57.954Z,100.00
2022-09-14T06:06:25.141Z,100.00
2022-09-14T06:08:55.348Z,100.00
2022-09-14T06:11:29.493Z,100.00
2022-09-14T06:13:57.327Z,100.00
2022-09-14T06:16:26.946Z,100.00
2022-09-14T06:18:56.949Z,100.00
2022-09-14T06:21:30.284Z,100.00
2022-09-14T06:23:57.625Z,100.00
2022-09-14T06:26:26.029Z,100.00
2022-09-14T06:28:53.475Z,100.00
2022-09-14T06:31:22.622Z,100.00
2022-09-14T06:33:51.809Z,100.00
2022-09-14T06:36:22.578Z,100.00
2022-09-14T06:38:50.521Z,100.00
2022-09-14T06:41:21.771Z,100.00
2022-09-14T06:43:50.371Z,100.00
2022-09-14T06:46:21.777Z,100.00
2022-09-14T06:48:55.213Z,100.00
2022-09-14T06:51:26.452Z,100.00
2022-09-14T06:53:54.033Z,100.00
2022-09-14T06:56:21.646Z,100.00
2022-09-14T06:58:49.946Z,100.00
2022-09-14T07:01:22.517Z,100.00
2022-09-14T07:03:52.314Z,100.00
2022-09-14T07:06:23.088Z,100.00
2022-09-14T07:08:51.600Z,100.00
2022-09-14T07:11:22.214Z,100.00
2022-09-14T07:13:49.265Z,100.00
2022-09-14T07:16:16.225Z,100.00
2022-09-14T07:18:43.286Z,100.00
2022-09-14T07:21:17.809Z,100.00
2022-09-14T07:23:46.907Z,100.00
2022-09-14T07:26:26.099Z,100.00
2022-09-14T07:29:02.555Z,100.00
2022-09-14T07:31:32.247Z,100.00
2022-09-14T07:34:03.437Z,100.00
2022-09-14T07:36:35.047Z,100.00
2022-09-14T07:39:06.012Z,100.00
2022-09-14T07:41:34.725Z,100.00
2022-09-14T07:44:06.277Z,100.00
2022-09-14T07:46:40.636Z,100.00
2022-09-14T07:49:09.432Z,100.00
2022-09-14T07:51:37.157Z,100.00
2022-09-14T07:54:06.675Z,100.00
2022-09-14T07:56:35.069Z,100.00
2022-09-14T07:59:30.774Z,100.00
2022-09-14T08:01:50.175Z,100.00
2022-09-14T08:04:17.546Z,100.00
2022-09-14T08:06:44.238Z,100.00
2022-09-14T08:09:10.944Z,100.00
2022-09-14T08:11:38.618Z,99.91
2022-09-14T08:14:13.059Z,98.82
2022-09-14T08:16:41.127Z,99.75
2022-09-14T08:19:15.594Z,98.57
2022-09-14T08:21:46.899Z,95.75
2022-09-14T08:24:21.439Z,93.52
2022-09-14T08:26:49.581Z,94.14
2022-09-14T08:29:19.063Z,90.65
2022-09-14T08:31:47.261Z,92.54
2022-09-14T08:34:16.577Z,93.45
2022-09-14T08:36:45.354Z,90.07
2022-09-14T08:39:15.026Z,89.29
2022-09-14T08:42:00.144Z,91.05
2022-09-14T08:44:42.253Z,89.57
2022-09-14T08:47:32.180Z,86.30
2022-09-14T08:50:18.317Z,86.11
2022-09-14T08:52:49.057Z,83.89
2022-09-14T08:55:37.795Z,84.71
2022-09-14T08:58:10.567Z,84.21
2022-09-14T09:01:12.437Z,83.74
2022-09-14T09:04:11.996Z,80.68
2022-09-14T09:07:20.069Z,79.87
2022-09-14T09:09:51.153Z,78.88
2022-09-14T09:12:35.983Z,79.04
2022-09-14T09:15:23.005Z,79.49
2022-09-14T09:18:09.086Z,79.35
2022-09-14T09:20:48.285Z,75.80
2022-09-14T09:23:22.527Z,77.74
2022-09-14T09:26:17.382Z,78.33
2022-09-14T09:28:55.196Z,77.53
2022-09-14T09:31:36.651Z,76.70
2022-09-14T09:34:03.945Z,77.82
2022-09-14T09:36:39.305Z,74.52
2022-09-14T09:39:07.002Z,74.21
2022-09-14T09:42:21.600Z,72.68
2022-09-14T09:45:04.635Z,71.48
2022-09-14T09:47:43.779Z,70.97
2022-09-14T09:50:13.822Z,71.47
2022-09-14T09:52:53.096Z,70.48
2022-09-14T09:55:28.749Z,70.59
2022-09-14T09:57:55.387Z,70.61
2022-09-14T10:00:29.583Z,71.67
2022-09-14T10:02:57.285Z,69.19
2022-09-14T10:05:33.753Z,67.37
2022-09-14T10:08:11.558Z,69.40
2022-09-14T10:10:42.862Z,69.67
2022-09-14T10:13:28.604Z,70.80
2022-09-14T10:16:30.069Z,69.93
2022-09-14T10:18:59.363Z,69.92
2022-09-14T10:21:26.471Z,69.56
2022-09-14T10:24:17.154Z,67.70
2022-09-14T10:26:44.056Z,68.63
2022-09-14T10:29:39.757Z,66.84
2022-09-14T10:32:24.176Z,66.97
2022-09-14T10:34:51.666Z,66.90
2022-09-14T10:37:32.066Z,68.09
2022-09-14T10:40:16.437Z,66.64
2022-09-14T10:43:14.286Z,68.57
2022-09-14T10:45:55.252Z,67.35
2022-09-14T10:48:30.547Z,65.37
2022-09-14T10:51:20.841Z,66.32
2022-09-14T10:54:22.266Z,67.22
2022-09-14T10:57:31.265Z,64.36
2022-09-14T11:00:12.297Z,65.87
2022-09-14T11:03:24.349Z,65.14
2022-09-14T11:06:28.826Z,62.79
2022-09-14T11:09:24.738Z,64.69
2022-09-14T11:12:24.148Z,63.63
2022-09-14T11:15:43.956Z,64.15
2022-09-14T11:18:36.268Z,63.97
2022-09-14T11:21:39.857Z,64.03
2022-09-14T11:24:34.920Z,64.97
2022-09-14T11:27:10.852Z,63.36
2022-09-14T11:29:52.318Z,62.85
2022-09-14T11:32:30.377Z,63.27
2022-09-14T11:35:17.530Z,63.75
2022-09-14T11:38:00.983Z,63.87
2022-09-14T11:41:02.640Z,64.56
2022-09-14T11:43:47.073Z,63.81
2022-09-14T11:46:26.447Z,64.42
2022-09-14T11:49:10.873Z,64.77
2022-09-14T11:52:04.571Z,61.39
2022-09-14T11:54:31.615Z,61.94
2022-09-14T11:57:04.054Z,62.05
2022-09-14T11:59:40.210Z,61.84
2022-09-14T12:02:25.243Z,62.19
2022-09-14T12:05:07.335Z,62.07
2022-09-14T12:07:42.241Z,62.49
2022-09-14T12:10:17.892Z,62.86
2022-09-14T12:13:13.936Z,64.51
2022-09-14T12:15:41.422Z,65.47
2022-09-14T12:18:08.170Z,65.70
2022-09-14T12:20:37.515Z,65.33
2022-09-14T12:23:27.832Z,63.97
2022-09-14T12:26:05.800Z,64.70
2022-09-14T12:28:35.608Z,64.59
2022-09-14T12:31:05.137Z,65.95
2022-09-14T12:33:32.254Z,64.84
2022-09-14T12:36:31.473Z,64.74
2022-09-14T12:38:58.140Z,65.70
2022-09-14T12:41:24.759Z,64.92
2022-09-14T12:43:51.608Z,64.62
2022-09-14T12:46:21.258Z,65.31
2022-09-14T12:48:53.043Z,66.97
2022-09-14T12:51:30.117Z,64.00
2022-09-14T12:54:20.246Z,64.86
2022-09-14T12:57:24.026Z,64.71
2022-09-14T13:00:16.281Z,62.97
2022-09-14T13:03:23.854Z,64.77
2022-09-14T13:05:51.311Z,64.08
2022-09-14T13:08:24.738Z,64.00
2022-09-14T13:10:52.701Z,64.57
2022-09-14T13:13:31.043Z,64.31
2022-09-14T13:16:05.395Z,63.99
2022-09-14T13:18:38.250Z,64.14
2022-09-14T13:21:19.693Z,65.25
2022-09-14T13:23:47.724Z,65.38
2022-09-14T13:26:26.333Z,66.07
2022-09-14T13:28:56.283Z,64.89
2022-09-14T13:31:32.130Z,64.57
2022-09-14T13:34:00.532Z,64.63
2022-09-14T13:36:33.580Z,64.48
2022-09-14T13:39:03.414Z,66.20
2022-09-14T13:41:32.327Z,64.86
2022-09-14T13:44:00.593Z,66.59
2022-09-14T13:46:28.563Z,67.05
2022-09-14T13:48:56.639Z,68.56
2022-09-14T13:51:27.827Z,69.09
2022-09-14T13:54:15.577Z,67.68
2022-09-14T13:56:42.410Z,66.86
2022-09-14T13:59:12.083Z,66.68
2022-09-14T14:01:54.676Z,66.91
2022-09-14T14:04:54.309Z,67.28
2022-09-14T14:07:32.880Z,66.78
2022-09-14T14:10:03.817Z,67.02
2022-09-14T14:12:39.390Z,66.90
2022-09-14T14:15:12.210Z,67.42
2022-09-14T14:17:43.123Z,67.94
2022-09-14T14:20:35.786Z,68.54
2022-09-14T14:23:21.162Z,67.92
2022-09-14T14:25:54.193Z,68.77
2022-09-14T14:28:30.393Z,67.55
2022-09-14T14:31:03.062Z,67.93
2022-09-14T14:33:33.185Z,68.77
2022-09-14T14:36:00.145Z,68.20
2022-09-14T14:38:26.763Z,68.75
2022-09-14T14:40:55.708Z,68.56
2022-09-14T14:43:26.244Z,68.91
2022-09-14T14:46:01.420Z,69.12
2022-09-14T14:48:29.362Z,68.86
2022-09-14T14:50:56.271Z,69.47
2022-09-14T14:53:25.251Z,70.08
2022-09-14T14:55:52.724Z,70.21
2022-09-14T14:58:21.904Z,72.57
2022-09-14T15:00:49.241Z,71.71
2022-09-14T15:03:17.316Z,71.64
2022-09-14T15:05:46.163Z,72.52
2022-09-14T15:08:16.234Z,72.61
2022-09-14T15:10:43.777Z,72.98
2022-09-14T15:13:12.317Z,73.84
2022-09-14T15:15:42.959Z,75.15
2022-09-14T15:18:09.923Z,76.04
2022-09-14T15:20:37.088Z,76.99
2022-09-14T15:23:04.111Z,77.37
2022-09-14T15:25:30.783Z,76.11
2022-09-14T15:27:58.078Z,77.11
2022-09-14T15:30:24.717Z,76.34
2022-09-14T15:32:51.436Z,76.62
2022-09-14T15:35:18.199Z,78.37
2022-09-14T15:37:48.264Z,80.36
2022-09-14T15:40:15.911Z,79.89
2022-09-14T15:42:42.685Z,80.16
2022-09-14T15:45:10.814Z,79.72
2022-09-14T15:47:37.857Z,77.91
2022-09-14T15:50:06.267Z,78.89
2022-09-14T15:52:38.106Z,80.33
2022-09-14T15:55:09.046Z,81.92
2022-09-14T15:57:37.416Z,82.57
2022-09-14T16:00:10.275Z,82.72
2022-09-14T16:02:37.339Z,78.79
2022-09-14T16:05:04.699Z,82.01
2022-09-14T16:07:31.373Z,82.62
2022-09-14T16:09:59.119Z,83.23
2022-09-14T16:12:26.548Z,83.08
2022-09-14T16:14:53.177Z,83.09
2022-09-14T16:17:19.850Z,83.50
2022-09-14T16:19:49.191Z,84.13
2022-09-14T16:22:16.000Z,84.51
2022-09-14T16:24:42.642Z,83.86
2022-09-14T16:27:09.318Z,84.13
2022-09-14T16:29:36.070Z,84.70
2022-09-14T16:32:02.872Z,85.03
2022-09-14T16:34:30.053Z,85.32
2022-09-14T16:36:58.779Z,84.90
2022-09-14T16:39:29.599Z,85.69
2022-09-14T16:41:57.432Z,85.54
2022-09-14T16:44:27.839Z,87.03
2022-09-14T16:46:58.302Z,87.83
2022-09-14T16:49:28.172Z,88.07
2022-09-14T16:51:56.241Z,88.72
2022-09-14T16:54:26.071Z,88.69
2022-09-14T16:56:58.112Z,89.21
2022-09-14T16:59:25.807Z,88.50
2022-09-14T17:01:54.945Z,88.53
2022-09-14T17:04:23.629Z,89.27
2022-09-14T17:06:52.090Z,89.19
2022-09-14T17:09:30.656Z,88.72
2022-09-14T17:11:58.902Z,88.44
2022-09-14T17:14:32.520Z,88.14
2022-09-14T17:17:00.622Z,88.28
2022-09-14T17:19:28.507Z,88.00
2022-09-14T17:21:55.333Z,87.68
2022-09-14T17:24:23.193Z,87.76
2022-09-14T17:26:50.331Z,87.91
2022-09-14T17:29:18.311Z,88.20
2022-09-14T17:31:46.228Z,88.01
2022-09-14T17:34:16.549Z,87.59
2022-09-14T17:36:44.116Z,88.53
2022-09-14T17:39:14.044Z,88.89
2022-09-14T17:41:42.809Z,88.95
2022-09-14T17:44:13.024Z,90.11
2022-09-14T17:46:50.745Z,90.65
2022-09-14T17:49:18.748Z,90.14
2022-09-14T17:51:45.444Z,89.76
2022-09-14T17:54:13.109Z,89.63
2022-09-14T17:56:40.413Z,89.78
2022-09-14T17:59:13.922Z,89.95
2022-09-14T18:01:41.082Z,89.92
2022-09-14T18:04:12.120Z,90.81
2022-09-14T18:06:43.732Z,92.24
2022-09-14T18:09:18.741Z,92.05
2022-09-14T18:11:46.961Z,92.51
2022-09-14T18:14:15.606Z,92.40
2022-09-14T18:16:44.297Z,93.19
2022-09-14T18:19:12.095Z,94.02
2022-09-14T18:21:39.965Z,93.82
2022-09-14T18:24:10.823Z,93.81
2022-09-14T18:26:41.144Z,93.12
2022-09-14T18:29:07.965Z,93.60
2022-09-14T18:31:34.796Z,93.30
2022-09-14T18:34:01.737Z,92.96
2022-09-14T18:36:30.072Z,93.38
2022-09-14T18:38:59.993Z,94.62
2022-09-14T18:41:33.987Z,95.02
2022-09-14T18:44:02.274Z,94.18
2022-09-14T18:46:29.534Z,93.73
2022-09-14T18:49:02.239Z,93.33
2022-09-14T18:51:31.754Z,92.90
2022-09-14T18:54:05.749Z,93.17
2022-09-14T18:56:35.520Z,93.60
2022-09-14T18:59:05.168Z,93.87
2022-09-14T19:01:35.410Z,93.25
2022-09-14T19:04:05.610Z,93.50
2022-09-14T19:06:35.158Z,93.16
2022-09-14T19:09:03.499Z,93.17
2022-09-14T19:11:33.076Z,94.02
2022-09-14T19:14:09.403Z,94.35
2022-09-14T19:16:41.580Z,93.17
2022-09-14T19:19:11.788Z,93.04
2022-09-14T19:21:38.619Z,92.99
2022-09-14T19:24:12.357Z,92.65
2022-09-14T19:26:45.580Z,92.52
2022-09-14T19:29:22.385Z,92.82
2022-09-14T19:31:52.108Z,93.56
2022-09-14T19:34:25.395Z,93.30
2022-09-14T19:36:53.955Z,92.95
2022-09-14T19:39:23.705Z,92.66
2022-09-14T19:41:51.525Z,93.78
2022-09-14T19:44:18.504Z,93.79
2022-09-14T19:46:45.685Z,94.76
2022-09-14T19:49:20.559Z,95.14
2022-09-14T19:51:48.969Z,95.82
2022-09-14T19:54:17.241Z,95.66
2022-09-14T19:56:46.186Z,95.98
2022-09-14T19:59:14.128Z,95.66
2022-09-14T20:01:41.704Z,95.79
2022-09-14T20:04:10.681Z,94.76
2022-09-14T20:06:42.551Z,95.26
2022-09-14T20:09:15.327Z,95.81
2022-09-14T20:11:44.485Z,96.83
2022-09-14T20:14:17.288Z,96.64
2022-09-14T20:16:49.129Z,96.10
2022-09-14T20:19:19.807Z,96.27
2022-09-14T20:21:49.461Z,95.69
2022-09-14T20:24:25.708Z,94.93
2022-09-14T20:26:59.606Z,95.74
2022-09-14T20:29:30.518Z,95.61
2022-09-14T20:31:59.053Z,95.95
2022-09-14T20:34:25.985Z,95.84
2022-09-14T20:36:54.521Z,95.47
2022-09-14T20:39:23.576Z,96.02
2022-09-14T20:41:50.448Z,95.81
2022-09-14T20:44:21.910Z,95.88
2022-09-14T20:46:50.314Z,96.33
2022-09-14T20:49:22.425Z,97.05
2022-09-14T20:51:49.480Z,97.90
2022-09-14T20:54:18.460Z,97.89
2022-09-14T20:56:46.362Z,97.67
2022-09-14T20:59:18.914Z,97.88
2022-09-14T21:01:49.733Z,99.11
2022-09-14T21:04:20.771Z,99.53
2022-09-14T21:06:55.154Z,99.16
2022-09-14T21:09:25.439Z,99.44
2022-09-14T21:11:53.808Z,99.02
2022-09-14T21:14:21.700Z,98.98
2022-09-14T21:16:53.210Z,98.91
2022-09-14T21:19:24.809Z,99.46
2022-09-14T21:21:51.868Z,99.31
2022-09-14T21:24:21.665Z,98.94
2022-09-14T21:26:48.787Z,99.95
2022-09-14T21:29:20.905Z,100.00
2022-09-14T21:31:48.846Z,100.00
2022-09-14T21:34:16.378Z,100.00
2022-09-14T21:36:47.755Z,100.00
2022-09-14T21:39:22.899Z,100.00
2022-09-14T21:41:57.330Z,100.00
2022-09-14T21:44:36.517Z,100.00
2022-09-14T21:47:04.823Z,100.00
2022-09-14T21:49:31.463Z,100.00
2022-09-14T21:51:58.106Z,100.00
2022-09-14T21:54:25.012Z,100.00
2022-09-14T21:56:53.783Z,100.00
2022-09-14T21:59:22.710Z,100.00
2022-09-14T22:01:49.638Z,100.00
2022-09-14T22:04:23.805Z,100.00
2022-09-14T22:06:51.651Z,100.00
2022-09-14T22:09:22.786Z,100.00
2022-09-14T22:11:49.421Z,100.00
2022-09-14T22:14:20.639Z,100.00
2022-09-14T22:16:49.065Z,100.00
2022-09-14T22:19:24.050Z,100.00
2022-09-14T22:21:52.358Z,100.00
2022-09-14T22:24:27.752Z,100.00
2022-09-14T22:26:55.003Z,100.00
2022-09-14T22:29:22.279Z,100.00
2022-09-14T22:31:49.314Z,100.00
2022-09-14T22:34:17.247Z,100.00
2022-09-14T22:36:45.001Z,100.00
2022-09-14T22:39:12.873Z,100.00
2022-09-14T22:41:40.310Z,100.00
2022-09-14T22:44:08.463Z,100.00
2022-09-14T22:46:36.019Z,100.00
2022-09-14T22:49:03.766Z,100.00
2022-09-14T22:51:31.558Z,100.00
2022-09-14T22:53:58.515Z,100.00
2022-09-14T22:56:32.690Z,100.00
2022-09-14T22:59:01.811Z,100.00
2022-09-14T23:01:33.165Z,100.00
2022-09-14T23:04:05.248Z,100.00
2022-09-14T23:06:37.264Z,100.00
2022-09-14T23:09:05.344Z,100.00
2022-09-14T23:11:32.222Z,100.00
2022-09-14T23:13:59.175Z,100.00
2022-09-14T23:16:29.867Z,100.00
2022-09-14T23:19:02.571Z,100.00
2022-09-14T23:21:31.486Z,100.00
2022-09-14T23:24:07.184Z,100.00
2022-09-14T23:26:34.270Z,100.00
2022-09-14T23:29:05.470Z,100.00
2022-09-14T23:31:33.155Z,100.00
2022-09-14T23:34:03.811Z,100.00
2022-09-14T23:36:31.488Z,100.00
2022-09-14T23:38:58.816Z,100.00
2022-09-14T23:41:27.184Z,100.00
2022-09-14T23:43:54.843Z,100.00
2022-09-14T23:46:22.604Z,100.00
2022-09-14T23:48:50.131Z,100.00
2022-09-14T23:51:17.602Z,100.00
2022-09-14T23:53:45.002Z,100.00
2022-09-14T23:56:12.356Z,100.00
2022-09-14T23:58:41.370Z,100.00
